createdAt,value
2022-08-22T00:02:18.763Z,18.58
2022-08-22T00:02:41.623Z,21.13
2022-08-22T00:03:15.720Z,18.62
2022-08-22T00:05:10.635Z,18.45
2022-08-22T00:07:55.361Z,18.36
2022-08-22T00:10:27.936Z,18.41
2022-08-22T00:13:14.604Z,18.41
2022-08-22T00:15:47.189Z,18.42
2022-08-22T00:18:17.807Z,18.42
2022-08-22T00:21:04.935Z,18.37
2022-08-22T00:23:58.382Z,18.40
2022-08-22T00:26:44.650Z,18.36
2022-08-22T00:29:15.977Z,18.26
2022-08-22T00:31:52.686Z,18.21
2022-08-22T00:34:34.490Z,18.18
2022-08-22T00:37:15.313Z,18.18
2022-08-22T00:39:49.774Z,18.15
2022-08-22T00:42:32.167Z,18.13
2022-08-22T00:45:08.410Z,18.12
2022-08-22T00:47:36.170Z,18.13
2022-08-22T00:50:29.921Z,18.13
2022-08-22T00:53:08.566Z,18.11
2022-08-22T00:55:46.757Z,18.11
2022-08-22T00:58:33.498Z,18.02
2022-08-22T01:01:06.775Z,18.07
2022-08-22T01:03:39.578Z,18.09
2022-08-22T01:06:12.069Z,18.18
2022-08-22T01:09:03.144Z,18.18
2022-08-22T01:12:08.670Z,18.11
2022-08-22T01:14:55.803Z,18.09
2022-08-22T01:17:49.686Z,18.03
2022-08-22T01:21:05.922Z,18.02
2022-08-22T01:23:54.014Z,18.01
2022-08-22T01:26:47.662Z,18.03
2022-08-22T01:29:51.032Z,17.98
2022-08-22T01:32:57.257Z,17.95
2022-08-22T01:35:45.424Z,17.90
2022-08-22T01:38:25.486Z,17.86
2022-08-22T01:41:36.690Z,17.91
2022-08-22T01:44:17.994Z,17.85
2022-08-22T01:46:51.577Z,17.81
2022-08-22T01:49:24.784Z,17.79
2022-08-22T01:52:01.790Z,17.79
2022-08-22T01:54:37.229Z,17.76
2022-08-22T01:57:08.219Z,17.74
2022-08-22T01:59:42.384Z,17.75
2022-08-22T02:02:15.303Z,17.68
2022-08-22T02:04:55.374Z,17.72
2022-08-22T02:07:47.567Z,17.65
2022-08-22T02:10:44.945Z,17.65
2022-08-22T02:13:14.423Z,17.69
2022-08-22T02:15:40.998Z,17.66
2022-08-22T02:18:12.297Z,17.64
2022-08-22T02:21:17.746Z,17.64
2022-08-22T02:23:55.947Z,17.66
2022-08-22T02:26:39.162Z,17.69
2022-08-22T02:29:17.169Z,17.69
2022-08-22T02:32:33.249Z,17.66
2022-08-22T02:35:08.839Z,17.63
2022-08-22T02:37:40.634Z,17.67
2022-08-22T02:40:35.423Z,17.64
2022-08-22T02:43:15.290Z,17.69
2022-08-22T02:46:03.910Z,17.71
2022-08-22T02:49:10.991Z,17.68
2022-08-22T02:51:43.401Z,17.66
2022-08-22T02:54:28.671Z,17.60
2022-08-22T02:57:05.887Z,17.55
2022-08-22T02:59:37.861Z,17.53
2022-08-22T03:02:45.713Z,17.56
2022-08-22T03:05:27.516Z,17.56
2022-08-22T03:08:13.134Z,17.54
2022-08-22T03:10:45.748Z,17.51
2022-08-22T03:13:24.062Z,17.47
2022-08-22T03:16:03.805Z,17.46
2022-08-22T03:18:33.404Z,17.42
2022-08-22T03:21:30.754Z,17.42
2022-08-22T03:24:10.593Z,17.48
2022-08-22T03:26:57.749Z,17.47
2022-08-22T03:29:38.474Z,17.46
2022-08-22T03:32:19.298Z,17.37
2022-08-22T03:35:05.262Z,17.34
2022-08-22T03:37:31.670Z,17.43
2022-08-22T03:40:03.569Z,17.43
2022-08-22T03:42:51.918Z,17.37
2022-08-22T03:45:55.988Z,17.30
2022-08-22T03:48:44.445Z,17.30
2022-08-22T03:51:20.049Z,17.34
2022-08-22T03:54:03.201Z,17.33
2022-08-22T03:56:54.172Z,17.26
2022-08-22T03:59:37.222Z,17.28
2022-08-22T04:02:42.835Z,17.28
2022-08-22T04:05:31.927Z,17.36
2022-08-22T04:08:27.805Z,17.36
2022-08-22T04:11:12.226Z,17.35
2022-08-22T04:14:16.481Z,17.33
2022-08-22T04:16:51.373Z,17.31
2022-08-22T04:19:38.649Z,17.22
2022-08-22T04:22:48.231Z,17.18
2022-08-22T04:25:18.117Z,17.20
2022-08-22T04:27:55.808Z,17.13
2022-08-22T04:31:03.662Z,17.04
2022-08-22T04:33:44.905Z,17.15
2022-08-22T04:36:30.894Z,17.21
2022-08-22T04:39:05.839Z,17.25
2022-08-22T04:42:29.113Z,17.25
2022-08-22T04:45:06.904Z,17.31
2022-08-22T04:47:54.096Z,17.29
2022-08-22T04:51:10.583Z,17.21
2022-08-22T04:53:56.378Z,17.21
2022-08-22T04:56:50.449Z,17.25
2022-08-22T04:59:18.722Z,17.26
2022-08-22T05:01:47.317Z,17.21
2022-08-22T05:04:20.609Z,17.19
2022-08-22T05:06:55.070Z,17.19
2022-08-22T05:09:34.329Z,17.21
2022-08-22T05:12:09.104Z,17.26
2022-08-22T05:14:48.869Z,17.23
2022-08-22T05:17:21.214Z,17.24
2022-08-22T05:19:51.715Z,17.27
2022-08-22T05:22:39.595Z,17.31
2022-08-22T05:25:11.671Z,17.28
2022-08-22T05:27:56.392Z,17.26
2022-08-22T05:30:28.373Z,17.30
2022-08-22T05:33:14.305Z,17.31
2022-08-22T05:35:53.403Z,17.38
2022-08-22T05:38:32.049Z,17.36
2022-08-22T05:41:08.689Z,17.39
2022-08-22T05:43:39.434Z,17.46
2022-08-22T05:46:09.857Z,17.53
2022-08-22T05:48:43.720Z,17.58
2022-08-22T05:51:21.453Z,17.54
2022-08-22T05:54:33.775Z,17.62
2022-08-22T05:57:30.191Z,17.66
2022-08-22T06:00:25.461Z,17.64
2022-08-22T06:02:51.884Z,17.71
2022-08-22T06:05:26.773Z,17.78
2022-08-22T06:08:16.498Z,17.80
2022-08-22T06:10:48.165Z,17.85
2022-08-22T06:13:24.699Z,17.89
2022-08-22T06:16:00.142Z,17.94
2022-08-22T06:18:29.045Z,17.98
2022-08-22T06:21:09.997Z,17.97
2022-08-22T06:23:43.433Z,17.98
2022-08-22T06:26:20.116Z,17.99
2022-08-22T06:28:55.010Z,18.06
2022-08-22T06:31:35.906Z,18.08
2022-08-22T06:34:11.901Z,18.18
2022-08-22T06:36:42.749Z,18.20
2022-08-22T06:39:14.774Z,18.21
2022-08-22T06:42:02.354Z,18.25
2022-08-22T06:44:37.647Z,18.30
2022-08-22T06:47:08.408Z,18.32
2022-08-22T06:49:36.959Z,18.37
2022-08-22T06:52:07.711Z,18.43
2022-08-22T06:54:38.965Z,18.42
2022-08-22T06:57:12.138Z,18.51
2022-08-22T06:59:39.378Z,18.39
2022-08-22T07:02:25.172Z,18.31
2022-08-22T07:04:52.211Z,18.35
2022-08-22T07:07:20.321Z,18.32
2022-08-22T07:09:51.326Z,18.43
2022-08-22T07:12:21.611Z,18.59
2022-08-22T07:14:52.283Z,18.77
2022-08-22T07:17:25.778Z,18.91
2022-08-22T07:20:15.387Z,19.09
2022-08-22T07:22:54.176Z,19.28
2022-08-22T07:25:21.726Z,19.41
2022-08-22T07:28:00.527Z,19.56
2022-08-22T07:30:50.177Z,19.72
2022-08-22T07:33:34.779Z,19.95
2022-08-22T07:36:17.696Z,20.13
2022-08-22T07:38:51.065Z,20.21
2022-08-22T07:41:24.416Z,20.35
2022-08-22T07:44:13.502Z,20.44
2022-08-22T07:47:00.644Z,20.71
2022-08-22T07:49:34.075Z,20.77
2022-08-22T07:52:08.268Z,20.88
2022-08-22T07:55:00.104Z,21.01
2022-08-22T07:57:30.282Z,21.08
2022-08-22T08:00:00.001Z,21.11
2022-08-22T08:02:28.183Z,21.10
2022-08-22T08:04:57.982Z,21.38
2022-08-22T08:07:29.005Z,21.52
2022-08-22T08:10:02.613Z,21.63
2022-08-22T08:12:40.026Z,21.79
2022-08-22T08:15:15.729Z,21.93
2022-08-22T08:17:44.210Z,22.13
2022-08-22T08:20:14.697Z,22.29
2022-08-22T08:22:44.921Z,22.32
2022-08-22T08:25:25.116Z,22.45
2022-08-22T08:28:11.293Z,22.56
2022-08-22T08:30:46.685Z,22.62
2022-08-22T08:33:26.295Z,22.64
2022-08-22T08:36:25.040Z,22.73
2022-08-22T08:39:14.225Z,22.86
2022-08-22T08:41:53.264Z,23.09
2022-08-22T08:44:41.342Z,23.23
2022-08-22T08:47:34.504Z,23.24
2022-08-22T08:50:21.206Z,23.45
2022-08-22T08:52:53.709Z,23.64
2022-08-22T08:55:46.425Z,23.74
2022-08-22T08:58:43.264Z,23.76
2022-08-22T09:01:19.704Z,23.68
2022-08-22T09:03:51.417Z,23.79
2022-08-22T09:06:36.207Z,23.86
2022-08-22T09:09:17.932Z,24.08
2022-08-22T09:12:08.671Z,23.97
2022-08-22T09:14:47.371Z,24.20
2022-08-22T09:18:08.536Z,24.21
2022-08-22T09:21:29.730Z,24.33
2022-08-22T09:24:08.159Z,24.30
2022-08-22T09:26:48.879Z,24.28
2022-08-22T09:29:32.709Z,24.26
2022-08-22T09:32:16.163Z,24.26
2022-08-22T09:34:59.638Z,24.34
2022-08-22T09:37:29.167Z,24.52
2022-08-22T09:40:03.889Z,24.49
2022-08-22T09:42:57.148Z,24.49
2022-08-22T09:45:34.400Z,24.52
2022-08-22T09:48:17.258Z,24.65
2022-08-22T09:51:08.332Z,24.65
2022-08-22T09:54:08.018Z,24.61
2022-08-22T09:56:43.668Z,24.75
2022-08-22T09:59:17.003Z,24.71
2022-08-22T10:01:55.790Z,24.79
2022-08-22T10:04:43.972Z,24.74
2022-08-22T10:07:32.370Z,24.82
2022-08-22T10:10:01.808Z,24.96
2022-08-22T10:12:36.046Z,24.93
2022-08-22T10:15:06.905Z,24.98
2022-08-22T10:17:40.999Z,24.91
2022-08-22T10:20:18.603Z,24.94
2022-08-22T10:23:00.733Z,24.98
2022-08-22T10:25:37.202Z,24.90
2022-08-22T10:28:10.621Z,24.92
2022-08-22T10:31:18.959Z,25.02
2022-08-22T10:34:07.901Z,24.99
2022-08-22T10:37:06.345Z,25.03
2022-08-22T10:39:47.494Z,25.08
2022-08-22T10:42:23.172Z,25.10
2022-08-22T10:45:14.745Z,25.13
2022-08-22T10:47:53.392Z,25.10
2022-08-22T10:50:40.204Z,25.06
2022-08-22T10:53:35.499Z,24.88
2022-08-22T10:56:16.833Z,24.98
2022-08-22T10:58:58.072Z,24.99
2022-08-22T11:01:41.512Z,24.97
2022-08-22T11:04:28.095Z,25.07
2022-08-22T11:07:14.364Z,25.19
2022-08-22T11:09:54.302Z,25.20
2022-08-22T11:12:44.986Z,25.17
2022-08-22T11:15:16.321Z,25.06
2022-08-22T11:18:13.191Z,25.10
2022-08-22T11:20:58.348Z,25.14
2022-08-22T11:23:52.075Z,25.20
2022-08-22T11:26:29.989Z,25.29
2022-08-22T11:29:29.788Z,25.30
2022-08-22T11:32:20.165Z,25.25
2022-08-22T11:34:51.730Z,25.27
2022-08-22T11:37:56.497Z,25.26
2022-08-22T11:40:41.458Z,25.18
2022-08-22T11:43:18.141Z,25.07
2022-08-22T11:45:49.166Z,25.06
2022-08-22T11:48:38.996Z,25.14
2022-08-22T11:51:37.635Z,25.31
2022-08-22T11:54:21.807Z,25.33
2022-08-22T11:57:29.991Z,25.33
2022-08-22T12:00:20.666Z,25.40
2022-08-22T12:03:18.015Z,25.44
2022-08-22T12:06:05.772Z,25.43
2022-08-22T12:08:34.337Z,25.40
2022-08-22T12:11:25.576Z,25.48
2022-08-22T12:14:03.934Z,25.53
2022-08-22T12:16:35.678Z,25.65
2022-08-22T12:19:22.911Z,25.76
2022-08-22T12:21:58.755Z,25.76
2022-08-22T12:25:02.719Z,25.77
2022-08-22T12:27:55.269Z,25.84
2022-08-22T12:30:43.222Z,25.78
2022-08-22T12:33:13.340Z,25.83
2022-08-22T12:36:02.879Z,25.79
2022-08-22T12:38:43.790Z,25.67
2022-08-22T12:41:27.855Z,25.68
2022-08-22T12:44:17.327Z,25.65
2022-08-22T12:46:49.704Z,25.67
2022-08-22T12:49:49.931Z,25.61
2022-08-22T12:52:52.748Z,25.58
2022-08-22T12:55:47.173Z,25.72
2022-08-22T12:58:29.481Z,25.78
2022-08-22T13:01:06.340Z,25.85
2022-08-22T13:03:50.812Z,25.85
2022-08-22T13:06:35.740Z,25.85
2022-08-22T13:09:28.537Z,25.90
2022-08-22T13:12:00.203Z,25.92
2022-08-22T13:14:31.970Z,25.98
2022-08-22T13:17:23.572Z,26.01
2022-08-22T13:20:22.101Z,25.98
2022-08-22T13:22:49.005Z,26.09
2022-08-22T13:25:26.205Z,26.05
2022-08-22T13:28:09.728Z,26.07
2022-08-22T13:30:40.034Z,26.01
2022-08-22T13:33:11.147Z,25.99
2022-08-22T13:35:54.203Z,26.05
2022-08-22T13:38:26.561Z,26.00
2022-08-22T13:40:55.774Z,26.09
2022-08-22T13:44:12.243Z,26.17
2022-08-22T13:46:52.946Z,26.24
2022-08-22T13:49:49.284Z,26.11
2022-08-22T13:52:29.664Z,26.00
2022-08-22T13:55:09.208Z,26.11
2022-08-22T13:57:51.734Z,26.19
2022-08-22T14:00:28.663Z,26.19
2022-08-22T14:03:01.157Z,26.10
2022-08-22T14:05:47.092Z,25.96
2022-08-22T14:08:26.648Z,26.11
2022-08-22T14:11:17.396Z,26.22
2022-08-22T14:13:55.556Z,26.24
2022-08-22T14:16:24.825Z,26.25
2022-08-22T14:18:57.163Z,26.15
2022-08-22T14:21:40.809Z,26.13
2022-08-22T14:24:48.201Z,26.04
2022-08-22T14:27:28.545Z,26.12
2022-08-22T14:30:02.939Z,26.13
2022-08-22T14:32:58.565Z,26.22
2022-08-22T14:35:35.362Z,26.25
2022-08-22T14:38:30.419Z,26.25
2022-08-22T14:41:25.098Z,26.13
2022-08-22T14:44:02.807Z,26.21
2022-08-22T14:46:41.664Z,26.21
2022-08-22T14:49:28.832Z,26.08
2022-08-22T14:52:19.348Z,25.96
2022-08-22T14:54:46.777Z,25.90
2022-08-22T14:57:20.504Z,25.76
2022-08-22T14:59:51.408Z,25.75
2022-08-22T15:02:30.960Z,25.80
2022-08-22T15:05:01.685Z,25.69
2022-08-22T15:07:33.542Z,25.65
2022-08-22T15:10:07.791Z,25.68
2022-08-22T15:12:49.525Z,25.77
2022-08-22T15:15:52.852Z,25.78
2022-08-22T15:18:23.672Z,25.76
2022-08-22T15:21:10.017Z,25.79
2022-08-22T15:23:44.821Z,25.74
2022-08-22T15:26:25.089Z,25.65
2022-08-22T15:29:06.974Z,25.65
2022-08-22T15:31:34.402Z,25.68
2022-08-22T15:34:13.946Z,25.64
2022-08-22T15:37:32.434Z,25.63
2022-08-22T15:40:28.764Z,25.62
2022-08-22T15:42:58.298Z,25.62
2022-08-22T15:45:34.749Z,25.60
2022-08-22T15:48:07.124Z,25.57
2022-08-22T15:50:39.508Z,25.61
2022-08-22T15:53:14.485Z,25.60
2022-08-22T15:56:05.200Z,25.67
2022-08-22T15:58:37.115Z,25.71
2022-08-22T16:01:19.743Z,25.82
2022-08-22T16:04:06.375Z,25.89
2022-08-22T16:07:01.313Z,25.95
2022-08-22T16:09:47.530Z,25.96
2022-08-22T16:12:31.879Z,25.98
2022-08-22T16:15:00.231Z,26.00
2022-08-22T16:17:26.812Z,26.00
2022-08-22T16:20:09.807Z,26.00
2022-08-22T16:22:58.344Z,25.93
2022-08-22T16:25:43.213Z,25.98
2022-08-22T16:28:54.699Z,26.01
2022-08-22T16:31:39.762Z,26.00
2022-08-22T16:34:18.493Z,25.97
2022-08-22T16:37:03.066Z,25.90
2022-08-22T16:39:32.489Z,25.89
2022-08-22T16:42:22.235Z,25.88
2022-08-22T16:45:08.326Z,25.80
2022-08-22T16:47:40.224Z,25.80
2022-08-22T16:50:15.965Z,25.79
2022-08-22T16:53:20.101Z,25.69
2022-08-22T16:55:50.713Z,25.63
2022-08-22T16:58:44.736Z,25.55
2022-08-22T17:01:52.453Z,25.50
2022-08-22T17:04:33.667Z,25.48
2022-08-22T17:07:14.739Z,25.45
2022-08-22T17:10:10.261Z,25.36
2022-08-22T17:13:06.289Z,25.32
2022-08-22T17:16:15.642Z,25.28
2022-08-22T17:19:00.262Z,25.26
2022-08-22T17:21:51.855Z,25.13
2022-08-22T17:24:35.664Z,25.13
2022-08-22T17:27:21.718Z,25.11
2022-08-22T17:29:52.336Z,25.03
2022-08-22T17:32:40.533Z,25.02
2022-08-22T17:35:24.877Z,24.92
2022-08-22T17:38:23.745Z,24.90
2022-08-22T17:41:03.630Z,24.92
2022-08-22T17:43:52.092Z,24.80
2022-08-22T17:46:21.475Z,24.74
2022-08-22T17:49:12.145Z,24.69
2022-08-22T17:51:57.446Z,24.67
2022-08-22T17:54:48.060Z,24.63
2022-08-22T17:57:26.048Z,24.55
2022-08-22T18:00:00.591Z,24.45
2022-08-22T18:02:39.405Z,24.47
2022-08-22T18:05:32.386Z,24.47
2022-08-22T18:11:43.266Z,24.32
2022-08-22T18:14:21.246Z,24.26
2022-08-22T18:16:52.411Z,24.21
2022-08-22T18:19:42.827Z,24.14
2022-08-22T18:22:24.910Z,24.11
2022-08-22T18:25:03.570Z,24.02
2022-08-22T18:27:49.090Z,23.98
2022-08-22T18:30:19.864Z,23.84
2022-08-22T18:33:07.274Z,23.64
2022-08-22T18:35:43.174Z,23.39
2022-08-22T18:38:22.418Z,23.13
2022-08-22T18:41:06.790Z,22.94
2022-08-22T18:43:51.866Z,22.78
2022-08-22T18:46:31.599Z,22.51
2022-08-22T18:49:15.231Z,22.25
2022-08-22T18:51:43.226Z,22.20
2022-08-22T18:54:13.477Z,22.02
2022-08-22T18:56:45.840Z,21.98
2022-08-22T18:59:37.544Z,22.09
2022-08-22T19:02:49.237Z,22.14
2022-08-22T19:05:32.742Z,22.13
2022-08-22T19:08:10.597Z,22.16
2022-08-22T19:10:55.545Z,22.22
2022-08-22T19:13:36.980Z,22.11
2022-08-22T19:16:31.576Z,22.02
2022-08-22T19:19:03.264Z,22.03
2022-08-22T19:21:52.137Z,22.06
2022-08-22T19:24:27.586Z,21.88
2022-08-22T19:27:19.110Z,21.84
2022-08-22T19:29:45.519Z,21.75
2022-08-22T19:32:52.707Z,21.45
2022-08-22T19:35:25.581Z,21.38
2022-08-22T19:37:57.968Z,21.27
2022-08-22T19:40:46.495Z,21.16
2022-08-22T19:43:36.828Z,21.19
2022-08-22T19:46:10.895Z,21.06
2022-08-22T19:48:52.643Z,21.02
2022-08-22T19:51:19.074Z,20.98
2022-08-22T19:53:51.734Z,21.07
2022-08-22T19:56:26.035Z,21.01
2022-08-22T19:59:02.071Z,20.94
2022-08-22T20:01:42.974Z,20.95
2022-08-22T20:04:32.210Z,20.87
2022-08-22T20:07:43.318Z,20.98
2022-08-22T20:10:35.641Z,20.99
2022-08-22T20:13:24.755Z,20.95
2022-08-22T20:16:05.927Z,20.85
2022-08-22T20:19:07.991Z,20.79
2022-08-22T20:21:58.984Z,20.79
2022-08-22T20:24:49.211Z,20.69
2022-08-22T20:27:41.287Z,20.72
2022-08-22T20:30:26.170Z,20.71
2022-08-22T20:33:01.875Z,20.69
2022-08-22T20:35:39.086Z,20.67
2022-08-22T20:38:11.296Z,20.70
2022-08-22T20:41:03.949Z,20.63
2022-08-22T20:44:00.671Z,20.51
2022-08-22T20:46:39.092Z,20.40
2022-08-22T20:49:26.258Z,20.20
2022-08-22T20:52:00.439Z,19.98
2022-08-22T20:54:30.511Z,20.01
2022-08-22T20:57:01.363Z,20.16
2022-08-22T20:59:37.530Z,20.19
2022-08-22T21:02:12.886Z,20.28
2022-08-22T21:04:45.606Z,20.34
2022-08-22T21:07:12.487Z,20.28
2022-08-22T21:09:57.443Z,20.20
2022-08-22T21:12:26.279Z,20.24
2022-08-22T21:14:52.769Z,20.37
2022-08-22T21:17:34.358Z,20.44
2022-08-22T21:20:19.162Z,20.42
2022-08-22T21:22:45.714Z,20.43
2022-08-22T21:25:12.268Z,20.42
2022-08-22T21:27:38.989Z,20.42
2022-08-22T21:30:09.964Z,20.36
2022-08-22T21:32:52.426Z,20.50
2022-08-22T21:35:32.536Z,20.60
2022-08-22T21:38:01.147Z,20.48
2022-08-22T21:40:33.929Z,20.41
2022-08-22T21:43:10.181Z,20.31
2022-08-22T21:45:39.344Z,20.26
2022-08-22T21:48:30.552Z,20.15
2022-08-22T21:51:16.973Z,20.14
2022-08-22T21:53:43.530Z,20.02
2022-08-22T21:56:17.122Z,19.93
2022-08-22T21:58:43.663Z,19.86
2022-08-22T22:01:24.740Z,19.76
2022-08-22T22:03:51.753Z,19.78
2022-08-22T22:06:18.270Z,19.69
2022-08-22T22:08:44.954Z,19.61
2022-08-22T22:11:14.570Z,19.59
2022-08-22T22:13:42.278Z,19.64
2022-08-22T22:16:12.149Z,19.57
2022-08-22T22:18:40.480Z,19.58
2022-08-22T22:21:08.446Z,19.56
2022-08-22T22:23:35.116Z,19.63
2022-08-22T22:26:04.658Z,19.61
2022-08-22T22:28:34.411Z,19.56
2022-08-22T22:31:01.405Z,19.48
2022-08-22T22:33:31.281Z,19.45
2022-08-22T22:36:02.765Z,19.45
2022-08-22T22:38:29.271Z,19.42
2022-08-22T22:40:56.512Z,19.51
2022-08-22T22:43:23.046Z,19.64
2022-08-22T22:45:49.878Z,19.75
2022-08-22T22:48:24.422Z,19.80
2022-08-22T22:50:52.392Z,19.87
2022-08-22T22:53:20.013Z,19.81
2022-08-22T22:55:48.155Z,19.87
2022-08-22T22:58:27.110Z,19.90
2022-08-22T23:00:53.632Z,19.92
2022-08-22T23:03:20.290Z,19.94
2022-08-22T23:05:46.847Z,19.94
2022-08-22T23:08:13.338Z,19.83
2022-08-22T23:10:39.966Z,19.80
2022-08-22T23:13:06.661Z,19.80
2022-08-22T23:15:33.228Z,19.81
2022-08-22T23:17:59.873Z,19.76
2022-08-22T23:20:26.502Z,19.79
2022-08-22T23:22:53.031Z,19.86
2022-08-22T23:25:19.797Z,19.83
2022-08-22T23:27:58.557Z,19.84
2022-08-22T23:30:25.103Z,19.75
2022-08-22T23:32:51.594Z,19.72
2022-08-22T23:35:18.192Z,19.67
2022-08-22T23:37:44.898Z,19.68
2022-08-22T23:40:11.687Z,19.65
2022-08-22T23:42:38.685Z,19.58
2022-08-22T23:45:05.709Z,19.53
2022-08-22T23:47:32.244Z,19.51
2022-08-22T23:49:58.712Z,19.56
2022-08-22T23:52:30.886Z,19.66
2022-08-22T23:54:57.710Z,19.68
2022-08-22T23:57:27.311Z,19.68
2022-08-22T23:59:57.692Z,19.59
